Time;durP1;ratioP1;P1;durP2;ratioP2;P2;SDS_P1;SDS_P2;PMS_P1;PMS_P2;Temp;Humidity;BMP_temperature;BMP_pressure;BME280_temperature;BME280_humidity;BME280_pressure;Samples;Min_cycle;Max_cycle;Signal;HPM_P1;HPM_P2
2022/05/10 00:01:41;;;;;;;;;;;;;;;4.56;64.11;101709.70;85769;1337;23141;-74
2022/05/10 00:03:45;;;;;;;;;;;;;;;4.55;64.12;101709.02;85768;1336;22615;-74
2022/05/10 00:05:50;;;;;;;;;;;;;;;4.53;64.36;101709.34;85768;1336;23113;-74
2022/05/10 00:07:54;;;;;;;;;;;;;;;4.51;64.48;101707.07;85760;1335;22465;-73
2022/05/10 00:09:59;;;;;;;;;;;;;;;4.50;64.66;101706.04;85776;1336;22556;-73
2022/05/10 00:12:04;;;;;;;;;;;;;;;4.49;64.68;101708.09;85676;1336;22490;-77
2022/05/10 00:14:09;;;;;;;;;;;;;;;4.46;64.54;101703.91;85759;1338;23093;-76
2022/05/10 00:16:17;;;;;;;;;;;;;;;4.44;64.74;101701.67;85781;1336;23125;-76
2022/05/10 00:18:22;;;;;;;;;;;;;;;4.44;64.77;101699.58;85777;1335;23075;-77
2022/05/10 00:20:30;;;;;;;;;;;;;;;4.43;65.08;101695.09;85760;1336;22442;-76
2022/05/10 00:22:34;;;;;;;;;;;;;;;4.43;64.93;101696.98;85065;1336;1002983;-77
2022/05/10 00:24:39;;;;;;;;;;;;;;;4.42;64.91;101692.99;85691;1336;23282;-77
2022/05/10 00:26:43;;;;;;;;;;;;;;;4.41;65.07;101696.10;85773;1336;23322;-77
2022/05/10 00:28:48;;;;;;;;;;;;;;;4.40;65.20;101691.27;85772;1335;23032;-77
2022/05/10 00:30:52;;;;;;;;;;;;;;;4.39;65.11;101689.02;85763;1336;22472;-77
2022/05/10 00:32:57;;;;;;;;;;;;;;;4.39;65.33;101690.73;85775;1338;23114;-77
2022/05/10 00:35:01;;;;;;;;;;;;;;;4.38;65.31;101685.21;85792;1330;22549;-77
2022/05/10 00:37:09;;;;;;;;;;;;;;;4.40;64.96;101681.93;85766;1336;23115;-74
2022/05/10 00:39:14;;;;;;;;;;;;;;;4.42;64.58;101682.29;85749;1337;22455;-74
2022/05/10 00:41:27;;;;;;;;;;;;;;;4.41;64.52;101681.77;85048;1336;1002626;-77
2022/05/10 00:43:35;;;;;;;;;;;;;;;4.40;64.21;101680.73;85562;1335;23176;-77
2022/05/10 00:45:43;;;;;;;;;;;;;;;4.38;63.79;101679.32;85758;1336;23184;-74
2022/05/10 00:47:50;;;;;;;;;;;;;;;4.36;63.72;101679.81;85762;1336;22766;-74
2022/05/10 00:49:57;;;;;;;;;;;;;;;4.36;63.53;101677.41;85772;1338;23160;-74
2022/05/10 00:52:05;;;;;;;;;;;;;;;4.34;63.60;101677.90;85758;1336;23257;-77
2022/05/10 00:54:16;;;;;;;;;;;;;;;4.31;63.21;101675.46;85046;1336;1003189;-77
2022/05/10 00:56:27;;;;;;;;;;;;;;;4.29;63.17;101674.41;85773;1336;23054;-77
2022/05/10 00:58:37;;;;;;;;;;;;;;;4.27;63.34;101674.21;85748;1336;23017;-77
2022/05/10 01:00:42;;;;;;;;;;;;;;;4.25;63.57;101675.08;85733;1338;22457;-74
2022/05/10 01:02:56;;;;;;;;;;;;;;;4.23;63.14;101671.94;85738;1336;23010;-74
2022/05/10 01:05:05;;;;;;;;;;;;;;;4.21;62.94;101674.16;85734;1337;22465;-74
2022/05/10 01:07:11;;;;;;;;;;;;;;;4.18;63.33;101673.09;85752;1335;23125;-77
2022/05/10 01:09:19;;;;;;;;;;;;;;;4.15;63.53;101668.77;85747;1336;23041;-77
2022/05/10 01:11:25;;;;;;;;;;;;;;;4.13;63.53;101665.11;85729;1337;23105;-76
2022/05/10 01:13:33;;;;;;;;;;;;;;;4.12;63.59;101661.47;85760;1335;23127;-77
2022/05/10 01:15:41;;;;;;;;;;;;;;;4.11;63.35;101662.51;85747;1336;22528;-75
2022/05/10 01:17:45;;;;;;;;;;;;;;;4.08;63.38;101657.81;85738;1336;23246;-77
2022/05/10 01:19:50;;;;;;;;;;;;;;;4.06;63.43;101660.05;85053;1335;1002914;-77
2022/05/10 01:22:03;;;;;;;;;;;;;;;4.04;63.44;101657.25;85748;1336;22507;-76
2022/05/10 01:24:41;;;;;;;;;;;;;;;4.00;63.62;101656.18;85647;1336;23092;-77
2022/05/10 01:26:57;;;;;;;;;;;;;;;3.95;63.75;101651.80;85755;1337;22483;-77
2022/05/10 01:29:03;;;;;;;;;;;;;;;3.91;63.77;101650.73;85745;1336;22484;-77
2022/05/10 01:31:09;;;;;;;;;;;;;;;3.88;63.87;101651.22;85756;1336;22463;-76
2022/05/10 01:33:29;;;;;;;;;;;;;;;3.85;63.87;101647.41;85750;1338;23124;-77
2022/05/10 01:35:43;;;;;;;;;;;;;;;3.81;64.05;101649.44;85753;1338;22549;-77
2022/05/10 01:37:51;;;;;;;;;;;;;;;3.76;64.06;101650.59;85772;1335;22507;-74
2022/05/10 01:39:59;;;;;;;;;;;;;;;3.71;64.04;101647.61;85769;1336;23169;-74
2022/05/10 01:42:05;;;;;;;;;;;;;;;3.67;64.08;101646.70;85769;1337;22455;-74
2022/05/10 01:44:15;;;;;;;;;;;;;;;3.61;64.30;101640.78;85776;1336;22466;-74
2022/05/10 01:46:22;;;;;;;;;;;;;;;3.58;64.43;101641.42;85769;1330;22469;-76
2022/05/10 01:48:27;;;;;;;;;;;;;;;3.54;64.77;101641.56;85786;1335;22464;-74
2022/05/10 01:50:41;;;;;;;;;;;;;;;3.50;64.49;101642.89;85058;1335;1002926;-75
2022/05/10 01:52:48;;;;;;;;;;;;;;;3.45;64.66;101639.73;85763;1337;22449;-77
2022/05/10 01:55:07;;;;;;;;;;;;;;;3.42;64.78;101639.52;85787;1336;22456;-77
2022/05/10 01:57:15;;;;;;;;;;;;;;;3.37;64.73;101636.36;85687;1335;23177;-77
2022/05/10 01:59:20;;;;;;;;;;;;;;;3.32;64.79;101635.27;85739;1338;22988;-77
2022/05/10 02:01:27;;;;;;;;;;;;;;;3.29;65.04;101636.08;85787;1334;22514;-73
2022/05/10 02:03:35;;;;;;;;;;;;;;;3.23;65.13;101630.84;85792;1337;23023;-74
2022/05/10 02:05:47;;;;;;;;;;;;;;;3.18;65.22;101629.40;85803;1336;22584;-74
2022/05/10 02:07:52;;;;;;;;;;;;;;;3.13;65.31;101629.34;85087;1334;1002303;-74
2022/05/10 02:10:00;;;;;;;;;;;;;;;3.08;65.42;101628.92;85796;1337;22474;-74
2022/05/10 02:12:08;;;;;;;;;;;;;;;3.04;65.51;101633.18;85799;1334;23300;-77
2022/05/10 02:14:15;;;;;;;;;;;;;;;2.99;65.38;101634.66;85831;1337;22490;-77
2022/05/10 02:16:22;;;;;;;;;;;;;;;2.94;65.42;101633.73;85822;1336;22565;-74
2022/05/10 02:18:31;;;;;;;;;;;;;;;2.88;65.79;101634.70;85795;1334;22460;-74
2022/05/10 02:20:41;;;;;;;;;;;;;;;2.83;65.97;101632.21;85809;1336;23101;-75
2022/05/10 02:22:48;;;;;;;;;;;;;;;2.79;66.22;101633.02;85801;1336;22587;-77
2022/05/10 02:24:55;;;;;;;;;;;;;;;2.74;66.27;101632.44;85816;1335;22528;-77
2022/05/10 02:27:01;;;;;;;;;;;;;;;2.69;66.30;101628.40;85826;1336;22580;-77
2022/05/10 02:29:09;;;;;;;;;;;;;;;2.65;66.77;101627.98;85810;1334;22486;-77
2022/05/10 02:31:15;;;;;;;;;;;;;;;2.60;66.88;101626.36;85800;1334;23174;-74
2022/05/10 02:33:19;;;;;;;;;;;;;;;2.56;66.91;101629.05;85750;1336;23053;-74
2022/05/10 02:35:24;;;;;;;;;;;;;;;2.52;66.89;101627.27;85811;1337;23184;-73
2022/05/10 02:37:29;;;;;;;;;;;;;;;2.49;67.06;101626.20;85791;1336;23075;-74
2022/05/10 02:39:37;;;;;;;;;;;;;;;2.46;67.16;101628.39;85815;1334;23281;-74
2022/05/10 02:41:44;;;;;;;;;;;;;;;2.44;67.42;101626.64;85818;1336;23085;-77
2022/05/10 02:43:53;;;;;;;;;;;;;;;2.41;67.37;101628.66;85819;1338;22485;-77
2022/05/10 02:45:59;;;;;;;;;;;;;;;2.38;67.63;101624.14;85815;1336;22526;-76
2022/05/10 02:48:13;;;;;;;;;;;;;;;2.36;67.55;101628.23;85818;1337;22497;-77
2022/05/10 02:50:22;;;;;;;;;;;;;;;2.33;67.67;101627.69;85096;1333;1002319;-77
2022/05/10 02:52:30;;;;;;;;;;;;;;;2.31;67.61;101626.10;85646;1337;23023;-76
2022/05/10 02:54:35;;;;;;;;;;;;;;;2.31;67.76;101623.52;85820;1336;23188;-77
2022/05/10 02:56:40;;;;;;;;;;;;;;;2.31;67.79;101625.58;85825;1334;22591;-73
2022/05/10 02:58:50;;;;;;;;;;;;;;;2.30;68.09;101622.64;85798;1337;22584;-75
2022/05/10 03:00:59;;;;;;;;;;;;;;;2.29;67.98;101626.75;85760;1335;23228;-76
2022/05/10 03:03:06;;;;;;;;;;;;;;;2.27;68.20;101621.21;85830;1336;23038;-76
2022/05/10 03:05:14;;;;;;;;;;;;;;;2.26;68.40;101619.81;85823;1336;23214;-76
2022/05/10 03:07:19;;;;;;;;;;;;;;;2.25;68.60;101619.96;85824;1337;22522;-73
2022/05/10 03:09:26;;;;;;;;;;;;;;;2.24;68.26;101618.93;85784;1338;22488;-73
2022/05/10 03:11:35;;;;;;;;;;;;;;;2.24;68.44;101618.75;85829;1335;22487;-77
2022/05/10 03:13:43;;;;;;;;;;;;;;;2.23;68.65;101616.85;85789;1335;23140;-77
2022/05/10 03:15:50;;;;;;;;;;;;;;;2.24;68.92;101619.79;85811;1334;22546;-76
2022/05/10 03:17:59;;;;;;;;;;;;;;;2.25;68.86;101616.70;85073;1336;1002891;-77
2022/05/10 03:20:04;;;;;;;;;;;;;;;2.28;68.76;101618.13;85793;1338;22482;-77
2022/05/10 03:22:09;;;;;;;;;;;;;;;2.29;69.10;101619.52;85808;1336;23119;-74
2022/05/10 03:24:14;;;;;;;;;;;;;;;2.30;68.75;101619.36;85642;1336;22470;-74
2022/05/10 03:26:24;;;;;;;;;;;;;;;2.31;68.74;101617.13;85802;1336;23079;-77
2022/05/10 03:28:32;;;;;;;;;;;;;;;2.32;69.02;101614.77;85804;1336;23286;-77
2022/05/10 03:30:42;;;;;;;;;;;;;;;2.36;69.12;101612.73;85801;1331;22464;-75
2022/05/10 03:32:51;;;;;;;;;;;;;;;2.39;69.22;101610.55;85808;1336;22631;-77
2022/05/10 03:34:58;;;;;;;;;;;;;;;2.43;69.33;101606.66;85788;1336;23232;-77
2022/05/10 03:37:05;;;;;;;;;;;;;;;2.47;69.70;101603.09;85803;1338;23172;-73
2022/05/10 03:39:10;;;;;;;;;;;;;;;2.71;69.47;101599.13;85800;1335;22599;-74
2022/05/10 03:41:18;;;;;;;;;;;;;;;3.24;69.84;101590.32;85807;1337;23213;-78
2022/05/10 03:43:27;;;;;;;;;;;;;;;3.79;70.19;101589.70;85795;1334;22465;-77
2022/05/10 03:45:35;;;;;;;;;;;;;;;4.37;69.46;101582.91;85756;1336;22468;-77
2022/05/10 03:47:42;;;;;;;;;;;;;;;5.24;69.97;101581.80;85806;1335;22526;-77
2022/05/10 03:49:47;;;;;;;;;;;;;;;6.38;68.79;101576.89;85778;1336;22499;-77
2022/05/10 03:51:54;;;;;;;;;;;;;;;7.45;66.70;101569.56;85792;1336;22495;-77
2022/05/10 03:53:58;;;;;;;;;;;;;;;8.47;64.16;101564.25;85813;1334;22544;-76
2022/05/10 03:56:04;;;;;;;;;;;;;;;9.33;62.35;101563.41;85821;1335;23287;-76
2022/05/10 03:58:09;;;;;;;;;;;;;;;10.27;59.95;101562.98;85810;1331;22552;-76
2022/05/10 04:00:20;;;;;;;;;;;;;;;11.18;58.22;101561.73;85820;1337;22589;-76
2022/05/10 04:02:28;;;;;;;;;;;;;;;12.00;54.90;101561.27;85805;1336;23090;-75
2022/05/10 04:04:32;;;;;;;;;;;;;;;12.55;52.66;101556.69;85802;1336;22603;-75
2022/05/10 04:06:40;;;;;;;;;;;;;;;13.04;51.65;101554.10;85803;1337;23174;-75
2022/05/10 04:08:45;;;;;;;;;;;;;;;13.64;50.22;101554.75;85805;1336;22491;-75
2022/05/10 04:10:50;;;;;;;;;;;;;;;14.15;48.83;101556.05;85821;1334;23003;-76
2022/05/10 04:12:54;;;;;;;;;;;;;;;13.96;47.02;101554.41;85766;1336;23089;-76
2022/05/10 04:14:59;;;;;;;;;;;;;;;13.38;47.03;101555.37;85805;1334;23035;-75
2022/05/10 04:17:04;;;;;;;;;;;;;;;12.71;47.59;101553.81;85797;1334;22595;-77
2022/05/10 04:19:09;;;;;;;;;;;;;;;12.05;48.42;101556.45;85802;1336;22461;-77
2022/05/10 04:21:16;;;;;;;;;;;;;;;11.48;49.23;101561.44;85810;1335;22601;-75
2022/05/10 04:23:21;;;;;;;;;;;;;;;11.01;49.95;101563.69;85811;1334;22457;-75
2022/05/10 04:25:26;;;;;;;;;;;;;;;10.56;50.82;101562.13;85804;1331;22473;-75
2022/05/10 04:27:30;;;;;;;;;;;;;;;10.22;51.54;101566.57;85798;1336;23042;-76
2022/05/10 04:29:35;;;;;;;;;;;;;;;9.98;51.68;101566.45;85746;1335;23263;-76
2022/05/10 04:31:39;;;;;;;;;;;;;;;9.80;51.79;101569.86;85813;1334;22454;-76
2022/05/10 04:33:44;;;;;;;;;;;;;;;9.69;52.25;101571.42;85802;1336;22506;-76
2022/05/10 04:35:49;;;;;;;;;;;;;;;9.62;52.45;101569.64;85795;1334;22552;-78
2022/05/10 04:37:54;;;;;;;;;;;;;;;9.59;52.41;101570.52;85798;1338;23125;-76
2022/05/10 04:42:21;;;;;;;;;;;;;;;9.87;51.95;101568.54;85785;1338;23162;-76
2022/05/10 04:44:29;;;;;;;;;;;;;;;10.48;51.85;101568.55;85786;1334;22459;-76
2022/05/10 04:46:35;;;;;;;;;;;;;;;11.80;50.98;101563.14;85796;1337;23277;-76
2022/05/10 04:48:39;;;;;;;;;;;;;;;13.37;49.11;101561.14;85803;1337;23125;-77
2022/05/10 04:50:44;;;;;;;;;;;;;;;14.95;45.12;101553.36;85778;1336;22544;-76
2022/05/10 04:52:49;;;;;;;;;;;;;;;16.32;42.11;101551.59;85767;1336;22494;-76
2022/05/10 04:54:54;;;;;;;;;;;;;;;17.65;40.45;101549.77;85785;1334;23008;-76
2022/05/10 04:56:58;;;;;;;;;;;;;;;18.94;37.35;101542.97;85745;1336;23213;-76
2022/05/10 04:59:03;;;;;;;;;;;;;;;19.92;35.16;101544.19;85785;1336;22542;-74
2022/05/10 05:01:08;;;;;;;;;;;;;;;20.71;31.94;101538.59;85802;1339;22457;-74
2022/05/10 05:03:13;;;;;;;;;;;;;;;21.26;30.33;101544.18;85793;1337;22485;-76
2022/05/10 05:05:18;;;;;;;;;;;;;;;21.91;28.58;101547.37;85474;1337;437320;-76
2022/05/10 05:07:23;;;;;;;;;;;;;;;22.56;27.88;101544.79;85796;1338;22480;-74
2022/05/10 05:09:30;;;;;;;;;;;;;;;23.25;25.59;101538.08;85800;1336;22480;-74
2022/05/10 05:11:42;;;;;;;;;;;;;;;23.61;24.02;101540.10;85782;1338;22492;-74
2022/05/10 05:13:49;;;;;;;;;;;;;;;23.76;23.56;101541.45;85755;1337;22524;-75
2022/05/10 05:15:54;;;;;;;;;;;;;;;24.09;23.74;101537.87;85793;1336;22509;-77
2022/05/10 05:17:58;;;;;;;;;;;;;;;24.57;22.93;101538.85;85794;1334;23143;-78
2022/05/10 05:20:03;;;;;;;;;;;;;;;25.02;22.85;101543.64;85790;1335;22513;-77
2022/05/10 05:22:08;;;;;;;;;;;;;;;25.60;22.17;101543.22;85787;1334;22453;-76
2022/05/10 05:24:13;;;;;;;;;;;;;;;26.00;20.45;101542.56;85796;1336;22455;-76
2022/05/10 05:26:22;;;;;;;;;;;;;;;26.17;19.57;101545.39;85786;1337;22474;-75
2022/05/10 05:28:29;;;;;;;;;;;;;;;26.06;18.75;101547.27;85738;1336;22484;-75
2022/05/10 05:30:37;;;;;;;;;;;;;;;26.10;19.38;101553.14;85777;1336;22547;-75
2022/05/10 05:32:42;;;;;;;;;;;;;;;26.50;18.31;101553.70;85793;1337;22454;-75
2022/05/10 05:34:46;;;;;;;;;;;;;;;26.58;18.23;101553.05;85806;1336;22482;-74
2022/05/10 05:39:10;;;;;;;;;;;;;;;26.92;17.52;101550.93;85783;1336;22515;-74
2022/05/10 05:41:19;;;;;;;;;;;;;;;27.01;16.53;101554.02;85799;1336;23041;-74
2022/05/10 05:43:26;;;;;;;;;;;;;;;26.97;17.88;101555.98;85790;1336;23044;-78
2022/05/10 05:45:34;;;;;;;;;;;;;;;27.38;17.42;101552.70;85795;1336;23110;-77
2022/05/10 05:47:40;;;;;;;;;;;;;;;27.72;16.97;101549.79;85568;1336;23191;-77
2022/05/10 05:49:45;;;;;;;;;;;;;;;28.14;16.53;101547.85;85647;1336;22576;-77
2022/05/10 05:51:50;;;;;;;;;;;;;;;28.46;16.38;101545.20;85815;1337;23051;-77
2022/05/10 05:53:55;;;;;;;;;;;;;;;28.76;16.04;101543.08;85802;1336;22493;-78
2022/05/10 05:56:03;;;;;;;;;;;;;;;28.78;15.62;101542.19;85811;1336;22510;-74
2022/05/10 05:58:08;;;;;;;;;;;;;;;28.82;15.53;101543.35;85802;1334;22533;-74
2022/05/10 06:00:16;;;;;;;;;;;;;;;29.07;15.74;101541.19;85803;1336;22511;-74
2022/05/10 06:02:21;;;;;;;;;;;;;;;29.40;14.77;101542.42;85797;1337;22495;-78
2022/05/10 06:04:26;;;;;;;;;;;;;;;29.52;14.99;101541.05;85790;1334;23131;-78
2022/05/10 06:06:34;;;;;;;;;;;;;;;29.75;14.58;101545.06;85813;1337;22602;-75
2022/05/10 06:08:41;;;;;;;;;;;;;;;29.90;14.25;101546.29;85790;1336;23084;-75
2022/05/10 06:10:50;;;;;;;;;;;;;;;29.86;13.78;101540.41;85778;1334;23150;-75
2022/05/10 06:13:00;;;;;;;;;;;;;;;29.96;14.29;101538.23;85776;1334;23217;-74
2022/05/10 06:15:08;;;;;;;;;;;;;;;30.01;13.88;101537.48;85799;1336;23138;-75
2022/05/10 06:17:30;;;;;;;;;;;;;;;30.00;13.88;101534.93;85768;1338;22484;-74
2022/05/10 06:19:42;;;;;;;;;;;;;;;30.07;14.11;101530.04;85558;1337;22696;-75
2022/05/10 06:21:47;;;;;;;;;;;;;;;30.31;14.06;101528.36;85807;1336;23069;-74
2022/05/10 06:23:54;;;;;;;;;;;;;;;30.45;14.02;101530.20;85791;1336;22534;-75
2022/05/10 06:26:01;;;;;;;;;;;;;;;30.55;13.49;101526.55;85809;1336;23186;-76
2022/05/10 06:28:07;;;;;;;;;;;;;;;30.57;13.65;101522.72;85805;1336;22477;-78
2022/05/10 06:30:14;;;;;;;;;;;;;;;30.67;13.06;101516.02;85790;1336;22975;-78
2022/05/10 06:32:22;;;;;;;;;;;;;;;30.81;13.08;101510.86;85784;1336;23032;-74
2022/05/10 06:34:27;;;;;;;;;;;;;;;30.88;13.12;101510.91;85418;1340;22482;-74
2022/05/10 06:36:32;;;;;;;;;;;;;;;30.97;13.27;101513.66;85784;1336;23179;-74
2022/05/10 06:38:37;;;;;;;;;;;;;;;31.12;13.00;101517.08;85765;1336;23280;-74
2022/05/10 06:40:45;;;;;;;;;;;;;;;31.25;12.62;101516.80;85787;1339;23138;-77
2022/05/10 06:42:49;;;;;;;;;;;;;;;31.28;12.40;101514.17;85779;1339;22555;-78
2022/05/10 06:44:54;;;;;;;;;;;;;;;31.43;12.62;101512.14;85798;1336;23164;-78
2022/05/10 06:47:00;;;;;;;;;;;;;;;31.78;12.27;101508.94;85784;1334;22490;-77
2022/05/10 06:49:05;;;;;;;;;;;;;;;31.95;12.12;101503.77;85798;1337;22467;-78
2022/05/10 06:51:11;;;;;;;;;;;;;;;32.01;11.77;101500.54;85804;1335;22568;-78
2022/05/10 06:53:19;;;;;;;;;;;;;;;31.93;12.09;101505.27;85796;1335;23057;-77
2022/05/10 06:55:27;;;;;;;;;;;;;;;32.04;11.88;101503.95;85793;1335;22473;-78
2022/05/10 06:57:32;;;;;;;;;;;;;;;32.02;12.12;101500.15;85761;1336;22499;-78
2022/05/10 06:59:43;;;;;;;;;;;;;;;32.25;11.43;101502.43;85801;1334;23260;-78
2022/05/10 07:01:52;;;;;;;;;;;;;;;32.15;11.47;101498.70;85800;1334;23180;-77
2022/05/10 07:03:56;;;;;;;;;;;;;;;32.25;11.56;101498.71;85794;1337;23218;-78
2022/05/10 07:06:05;;;;;;;;;;;;;;;32.12;11.74;101496.84;85789;1335;22578;-74
2022/05/10 07:08:12;;;;;;;;;;;;;;;32.37;11.90;101492.95;85802;1338;22484;-73
2022/05/10 07:10:17;;;;;;;;;;;;;;;32.44;11.93;101494.16;85606;1337;23041;-73
2022/05/10 07:12:23;;;;;;;;;;;;;;;32.64;11.39;101496.69;85803;1337;23058;-78
2022/05/10 07:14:29;;;;;;;;;;;;;;;32.73;11.20;101497.17;85792;1334;22472;-78
2022/05/10 07:16:37;;;;;;;;;;;;;;;32.79;10.84;101492.29;85669;1339;22472;-79
2022/05/10 07:18:42;;;;;;;;;;;;;;;32.85;11.19;101491.74;85799;1336;23175;-78
2022/05/10 07:20:52;;;;;;;;;;;;;;;33.02;11.18;101492.13;85793;1338;22474;-74
2022/05/10 07:22:57;;;;;;;;;;;;;;;33.03;11.03;101492.90;85800;1334;23108;-73
2022/05/10 07:25:03;;;;;;;;;;;;;;;32.75;10.63;101486.79;85785;1336;23190;-73
2022/05/10 07:27:08;;;;;;;;;;;;;;;32.62;11.17;101485.52;85809;1338;23607;-74
2022/05/10 07:29:14;;;;;;;;;;;;;;;32.78;11.07;101486.48;85795;1338;22483;-74
2022/05/10 07:31:20;;;;;;;;;;;;;;;33.00;10.59;101485.17;85802;1336;22475;-77
2022/05/10 07:33:26;;;;;;;;;;;;;;;32.99;10.87;101482.75;85796;1336;23229;-74
2022/05/10 07:37:54;;;;;;;;;;;;;;;32.95;11.08;101475.63;85655;1336;23028;-75
2022/05/10 07:39:59;;;;;;;;;;;;;;;33.12;11.11;101472.71;85674;1336;22478;-74
2022/05/10 07:42:07;;;;;;;;;;;;;;;33.25;10.50;101470.57;85799;1337;23074;-79
2022/05/10 07:44:15;;;;;;;;;;;;;;;33.35;10.40;101472.93;85629;1340;22444;-80
2022/05/10 07:46:19;;;;;;;;;;;;;;;33.58;10.40;101475.83;85803;1334;23109;-74
2022/05/10 07:48:25;;;;;;;;;;;;;;;33.88;10.57;101476.46;85801;1336;23101;-74
2022/05/10 07:50:30;;;;;;;;;;;;;;;34.07;10.44;101473.83;85800;1336;22546;-74
2022/05/10 07:52:36;;;;;;;;;;;;;;;34.09;10.46;101476.23;85794;1337;23193;-74
2022/05/10 07:54:44;;;;;;;;;;;;;;;34.11;10.08;101478.16;85799;1339;22463;-78
2022/05/10 07:56:49;;;;;;;;;;;;;;;33.99;10.24;101479.27;85804;1337;23217;-74
2022/05/10 07:58:54;;;;;;;;;;;;;;;33.84;10.29;101479.37;85792;1334;22454;-74
2022/05/10 08:01:03;;;;;;;;;;;;;;;33.87;10.32;101475.44;85798;1337;23128;-78
2022/05/10 08:03:12;;;;;;;;;;;;;;;33.99;10.56;101478.21;85791;1336;23132;-77
2022/05/10 08:05:23;;;;;;;;;;;;;;;34.09;10.32;101480.71;85756;1336;23276;-78
2022/05/10 08:07:29;;;;;;;;;;;;;;;34.23;10.46;101480.54;85622;1339;23187;-78
2022/05/10 08:09:37;;;;;;;;;;;;;;;34.40;9.72;101478.67;85679;1336;22559;-78
2022/05/10 08:11:43;;;;;;;;;;;;;;;34.28;10.13;101482.23;85806;1339;23149;-76
2022/05/10 08:13:53;;;;;;;;;;;;;;;34.42;10.16;101476.80;85787;1338;23273;-75
2022/05/10 08:15:59;;;;;;;;;;;;;;;34.53;9.96;101468.02;85817;1339;23045;-75
2022/05/10 08:18:04;;;;;;;;;;;;;;;34.40;9.66;101478.28;85669;1336;23189;-75
2022/05/10 08:20:11;;;;;;;;;;;;;;;34.30;9.11;101476.63;85800;1337;23115;-75
2022/05/10 08:22:20;;;;;;;;;;;;;;;34.13;9.45;101468.86;85626;1340;23295;-74
2022/05/10 08:24:30;;;;;;;;;;;;;;;34.23;9.65;101469.33;85810;1335;22510;-73
2022/05/10 08:26:38;;;;;;;;;;;;;;;34.54;9.74;101461.00;85818;1332;22552;-80
2022/05/10 08:28:47;;;;;;;;;;;;;;;34.83;9.39;101457.36;85795;1339;23158;-75
2022/05/10 08:30:52;;;;;;;;;;;;;;;35.00;10.15;101460.98;85808;1334;22447;-74
2022/05/10 08:33:03;;;;;;;;;;;;;;;35.10;9.24;101459.06;85798;1339;23177;-74
2022/05/10 08:35:10;;;;;;;;;;;;;;;35.07;9.15;101458.33;85803;1339;22542;-75
2022/05/10 08:37:18;;;;;;;;;;;;;;;34.84;8.88;101451.09;85559;1341;22539;-76
2022/05/10 08:39:24;;;;;;;;;;;;;;;34.53;9.06;101448.58;85791;1338;22501;-76
2022/05/10 08:41:41;;;;;;;;;;;;;;;34.31;9.02;101451.60;85807;1338;23099;-75
2022/05/10 08:43:48;;;;;;;;;;;;;;;33.92;8.87;101452.05;85790;1338;22530;-75
2022/05/10 08:45:58;;;;;;;;;;;;;;;33.63;9.26;101459.10;85799;1338;23211;-77
2022/05/10 08:48:05;;;;;;;;;;;;;;;33.57;9.58;101460.62;85782;1339;22498;-77
2022/05/10 08:50:13;;;;;;;;;;;;;;;33.70;9.54;101459.00;85785;1336;23258;-77
2022/05/10 08:52:27;;;;;;;;;;;;;;;33.72;9.48;101455.56;85790;1338;23139;-76
2022/05/10 08:54:32;;;;;;;;;;;;;;;33.71;9.10;101451.29;85814;1338;23133;-78
2022/05/10 08:56:43;;;;;;;;;;;;;;;33.62;9.42;101452.31;85772;1334;23247;-79
2022/05/10 08:59:02;;;;;;;;;;;;;;;33.54;9.40;101449.04;85629;1340;23124;-79
2022/05/10 09:01:12;;;;;;;;;;;;;;;33.57;9.58;101450.61;85598;1337;23134;-74
2022/05/10 09:03:22;;;;;;;;;;;;;;;33.55;9.08;101446.82;85797;1338;22501;-75
2022/05/10 09:05:30;;;;;;;;;;;;;;;33.49;9.42;101438.52;85783;1338;22500;-75
2022/05/10 09:07:38;;;;;;;;;;;;;;;33.47;9.29;101430.63;85596;1340;23185;-75
2022/05/10 09:09:55;;;;;;;;;;;;;;;33.61;9.71;101429.70;85790;1339;23141;-75
2022/05/10 09:12:08;;;;;;;;;;;;;;;33.59;9.37;101430.27;85498;1339;22513;-80
2022/05/10 09:14:16;;;;;;;;;;;;;;;33.14;9.64;101427.92;85792;1336;22655;-82
2022/05/10 09:16:21;;;;;;;;;;;;;;;32.79;10.31;101425.98;85792;1339;23155;-75
2022/05/10 09:18:28;;;;;;;;;;;;;;;32.45;10.36;101420.83;85804;1337;22464;-74
2022/05/10 09:20:39;;;;;;;;;;;;;;;31.97;10.38;101419.73;85737;1339;22544;-74
2022/05/10 09:22:56;;;;;;;;;;;;;;;31.53;10.80;101420.52;85793;1337;23169;-76
2022/05/10 09:25:02;;;;;;;;;;;;;;;31.25;11.21;101415.70;85638;1336;23097;-78
2022/05/10 09:27:09;;;;;;;;;;;;;;;30.89;11.64;101409.63;85660;1337;22551;-78
2022/05/10 09:29:22;;;;;;;;;;;;;;;30.59;12.99;101404.02;85779;1338;22559;-78
2022/05/10 09:36:26;;;;;;;;;;;;;;;29.74;12.00;101394.27;85299;1342;23198;-78
2022/05/10 09:38:35;;;;;;;;;;;;;;;29.44;12.16;101398.23;85572;1336;22483;-78
2022/05/10 09:40:47;;;;;;;;;;;;;;;29.11;11.90;101397.76;85619;1336;22482;-74
2022/05/10 09:43:12;;;;;;;;;;;;;;;28.77;12.37;101394.98;85781;1334;23148;-74
2022/05/10 09:45:20;;;;;;;;;;;;;;;28.54;13.17;101395.02;85741;1339;22621;-74
2022/05/10 09:47:25;;;;;;;;;;;;;;;28.44;13.00;101397.76;85620;1340;22516;-79
2022/05/10 09:49:35;;;;;;;;;;;;;;;28.25;12.81;101386.33;85772;1337;22478;-79
2022/05/10 09:51:41;;;;;;;;;;;;;;;27.90;12.74;101382.98;85785;1338;23451;-80
2022/05/10 09:53:49;;;;;;;;;;;;;;;27.49;12.63;101379.19;85773;1337;23056;-79
2022/05/10 09:56:09;;;;;;;;;;;;;;;27.05;13.31;101377.86;85784;1334;23797;-79
2022/05/10 09:58:20;;;;;;;;;;;;;;;26.75;13.51;101382.49;85786;1335;23162;-79
2022/05/10 10:00:41;;;;;;;;;;;;;;;26.63;13.76;101386.34;85744;1339;23182;-79
2022/05/10 10:02:56;;;;;;;;;;;;;;;26.56;13.44;101382.80;85774;1330;22521;-72
2022/05/10 10:05:29;;;;;;;;;;;;;;;26.34;13.71;101372.95;85780;1334;22569;-72
2022/05/10 10:07:34;;;;;;;;;;;;;;;26.20;14.71;101370.63;85795;1334;23220;-78
2022/05/10 10:09:43;;;;;;;;;;;;;;;26.15;14.13;101369.65;85757;1336;23637;-77
2022/05/10 10:11:51;;;;;;;;;;;;;;;25.97;13.96;101367.77;85630;1339;23219;-76
2022/05/10 10:14:01;;;;;;;;;;;;;;;25.87;14.59;101361.36;85549;1340;22488;-79
2022/05/10 10:16:15;;;;;;;;;;;;;;;25.86;14.66;101356.73;85634;1337;22635;-74
2022/05/10 10:18:43;;;;;;;;;;;;;;;25.89;14.81;101356.88;85786;1338;22460;-77
2022/05/10 10:20:54;;;;;;;;;;;;;;;25.82;13.62;101362.09;85612;1339;23139;-78
2022/05/10 10:23:01;;;;;;;;;;;;;;;25.54;13.20;101358.45;85778;1336;22471;-81
2022/05/10 10:25:11;;;;;;;;;;;;;;;25.29;13.80;101358.39;85759;1337;22466;-80
2022/05/10 10:27:21;;;;;;;;;;;;;;;25.18;14.20;101350.98;85639;1340;23224;-74
2022/05/10 10:29:33;;;;;;;;;;;;;;;25.17;13.91;101348.69;85802;1337;22492;-74
2022/05/10 10:31:45;;;;;;;;;;;;;;;25.17;13.73;101344.08;85746;1337;23167;-74
2022/05/10 10:33:58;;;;;;;;;;;;;;;24.92;13.58;101339.90;85646;1336;22505;-74
2022/05/10 10:36:06;;;;;;;;;;;;;;;24.71;13.53;101336.29;85780;1335;23026;-78
2022/05/10 10:38:17;;;;;;;;;;;;;;;24.66;14.39;101332.05;85793;1339;22482;-80
2022/05/10 10:40:30;;;;;;;;;;;;;;;24.72;14.97;101324.38;85737;1336;23190;-80
2022/05/10 10:42:38;;;;;;;;;;;;;;;24.72;14.65;101323.91;85785;1339;22504;-79
2022/05/10 10:44:44;;;;;;;;;;;;;;;24.50;14.27;101323.23;85760;1336;22518;-79
2022/05/10 10:47:05;;;;;;;;;;;;;;;24.36;15.07;101319.16;85786;1335;22621;-79
2022/05/10 10:49:14;;;;;;;;;;;;;;;24.31;14.46;101317.36;85781;1338;22470;-73
2022/05/10 10:51:30;;;;;;;;;;;;;;;24.24;14.70;101311.39;85777;1334;22469;-80
2022/05/10 10:53:38;;;;;;;;;;;;;;;24.09;14.91;101305.59;85756;1339;23225;-79
2022/05/10 10:55:56;;;;;;;;;;;;;;;24.02;14.69;101301.54;85814;1331;22636;-79
2022/05/10 10:58:07;;;;;;;;;;;;;;;23.90;14.42;101298.08;85797;1336;23191;-80
2022/05/10 11:00:17;;;;;;;;;;;;;;;23.77;14.53;101296.02;85789;1336;22509;-81
2022/05/10 11:02:49;;;;;;;;;;;;;;;23.61;14.54;101295.64;85753;1339;23263;-80
2022/05/10 11:05:05;;;;;;;;;;;;;;;23.39;14.51;101294.17;85605;1340;23604;-79
2022/05/10 11:07:13;;;;;;;;;;;;;;;23.20;14.87;101287.27;85771;1338;23212;-80
2022/05/10 11:09:47;;;;;;;;;;;;;;;23.04;15.39;101280.11;85555;1341;22478;-79
2022/05/10 11:12:16;;;;;;;;;;;;;;;22.98;15.83;101278.80;85679;1339;22616;-80
2022/05/10 11:14:32;;;;;;;;;;;;;;;22.99;16.36;101273.92;85747;1337;22481;-73